JA2 weather

CLOSED Pineimuta Municipal Airport
Pineimuta, Manitoba, Canada

Public forecast

Using degrees Celsius for public forecast. Weather courtesy of forecast.io.

METAR (pilot weather report)

Closest report is Dauphin Barker Airport, 59.9 nm (110.9 km) SW. Retrieved 2019/09/20 17:00 UTC (36 minutes ago):

CYDN 201700Z AUTO 26009KT 9SM BKN019 OVC170 19/17 A2975 RMK SLP078 DENSITY ALT 1900FT

TAF (pilot weather forecast)

Closest forecast is Dauphin Barker Airport, 59.9 nm (110.9 km) SW. Retrieved 2019/09/20 12:48 UTC (5 hours ago):

TAF CYDN 201145Z 2012/2024 VRB15G25KT 2SM +TSRA BR BKN007 OVC020CB TEMPO 2012/2014 P6SM -SHRA FEW007 SCT020 OVC050 FM201400 VRB03KT P6SM -RA OVC012 PROB30 2014/2018 VRB20G35KT 2SM +TSRA BR OVC012CB FM201800 22010KT P6SM -SHRA OVC025 TEMPO 2018/2023 VRB20G40KT 2SM +TSRA BR BKN008 OVC020CB FM202300 26008KT P6SM -SHRA BKN015 OVC030 RMK FCST BASED ON AUTO OBS. NXT FCST BY 201800Z